Time;durP1;ratioP1;P1;durP2;ratioP2;P2;SDS_P1;SDS_P2;PMS_P1;PMS_P2;Temp;Humidity;BMP_temperature;BMP_pressure;BME280_temperature;BME280_humidity;BME280_pressure;Samples;Min_cycle;Max_cycle;Signal;HPM_P1;HPM_P2
2023/05/15 00:01:18;;;;;;;16.50;15.80;;;21.80;78.60;;;;;;5053981;28;20901;-56
2023/05/15 00:03:45;;;;;;;15.87;15.27;;;21.80;78.60;;;;;;5053860;28;20487;-55
2023/05/15 00:06:14;;;;;;;15.83;15.13;;;21.80;78.70;;;;;;5053718;28;20518;-55
2023/05/15 00:08:41;;;;;;;15.80;15.20;;;21.80;78.90;;;;;;5052853;28;20500;-54
2023/05/15 00:11:08;;;;;;;16.17;15.47;;;21.80;78.90;;;;;;5053928;28;20483;-52
2023/05/15 00:13:34;;;;;;;16.23;15.53;;;21.80;79.10;;;;;;5053523;28;20452;-53
2023/05/15 00:16:01;;;;;;;16.00;15.30;;;21.80;79.20;;;;;;5053530;28;20981;-53
2023/05/15 00:18:28;;;;;;;16.37;15.77;;;21.80;79.40;;;;;;5053481;28;20901;-52
2023/05/15 00:20:55;;;;;;;17.23;16.53;;;21.80;79.50;;;;;;5053712;28;20476;-56
2023/05/15 00:23:23;;;;;;;16.90;16.27;;;21.80;79.70;;;;;;5053512;28;20476;-53
2023/05/15 00:25:50;;;;;;;16.87;16.17;;;21.80;79.90;;;;;;5053301;28;20522;-52
2023/05/15 00:28:17;;;;;;;16.67;16.07;;;21.80;80.10;;;;;;5053428;28;20946;-54
2023/05/15 00:30:44;;;;;;;17.50;16.70;;;21.80;80.20;;;;;;5053510;28;20455;-53
2023/05/15 00:33:11;;;;;;;16.80;16.10;;;21.80;80.50;;;;;;5053402;28;20489;-51
2023/05/15 00:35:38;;;;;;;17.20;16.40;;;21.80;80.90;;;;;;5052809;28;20501;-53
2023/05/15 00:38:05;;;;;;;16.27;15.67;;;21.70;80.80;;;;;;5053056;28;20509;-55
2023/05/15 00:40:35;;;;;;;19.00;18.00;;;21.70;80.80;;;;;;5053319;28;20859;-54
2023/05/15 00:43:02;;;;;;;17.50;16.80;;;21.70;80.90;;;;;;5053086;28;20484;-53
2023/05/15 00:45:30;;;;;;;16.40;15.70;;;21.70;80.90;;;;;;5052744;28;20490;-53
2023/05/15 00:47:58;;;;;;;17.20;16.37;;;21.70;81.10;;;;;;5053403;28;20957;-53
2023/05/15 00:50:26;;;;;;;17.40;16.77;;;21.70;81.00;;;;;;5053144;28;20448;-52
2023/05/15 00:52:53;;;;;;;17.73;16.83;;;21.80;81.10;;;;;;5052945;28;20491;-53
2023/05/15 00:55:20;;;;;;;17.30;16.60;;;21.70;81.20;;;;;;5052917;28;20448;-52
2023/05/15 00:57:49;;;;;;;17.03;16.37;;;21.70;81.30;;;;;;5052775;28;21399;-52
2023/05/15 01:00:17;;;;;;;17.23;16.33;;;21.70;81.50;;;;;;5052765;28;20499;-55
2023/05/15 01:02:44;;;;;;;17.50;16.70;;;21.70;81.50;;;;;;5052807;28;20506;-53
2023/05/15 01:05:11;;;;;;;16.20;15.60;;;21.70;81.60;;;;;;5052454;28;20926;-52
2023/05/15 01:07:48;;;;;;;16.33;15.67;;;21.70;81.70;;;;;;5052745;28;20576;-54
2023/05/15 01:10:17;;;;;;;15.57;14.97;;;21.70;81.90;;;;;;5052919;28;20467;-53
2023/05/15 01:12:46;;;;;;;16.30;15.60;;;21.70;81.90;;;;;;5052794;28;21033;-55
2023/05/15 01:15:14;;;;;;;15.43;14.83;;;21.70;82.10;;;;;;5052379;28;20483;-55
2023/05/15 01:17:41;;;;;;;16.13;15.53;;;21.70;82.10;;;;;;5052494;28;20483;-55
2023/05/15 01:20:10;;;;;;;16.70;16.00;;;21.70;82.20;;;;;;5052300;28;20503;-51
2023/05/15 01:22:47;;;;;;;16.30;15.70;;;21.70;82.30;;;;;;5052409;28;20444;-57
2023/05/15 01:25:46;;;;;;;17.07;16.37;;;21.70;82.50;;;;;;5052260;28;20480;-53
2023/05/15 01:28:19;;;;;;;17.60;16.90;;;21.70;82.70;;;;;;5052388;28;20510;-52
2023/05/15 01:30:49;;;;;;;17.17;16.47;;;21.70;82.80;;;;;;5052359;28;20444;-54
2023/05/15 01:33:20;;;;;;;17.03;16.40;;;21.70;82.90;;;;;;5052123;28;20452;-54
2023/05/15 01:35:52;;;;;;;18.00;17.00;;;21.70;82.80;;;;;;5052052;28;20487;-52
2023/05/15 01:38:27;;;;;;;16.37;15.77;;;21.70;83.00;;;;;;5052272;28;20468;-52
2023/05/15 01:41:02;;;;;;;16.63;15.93;;;21.70;83.10;;;;;;5052175;28;20456;-53
2023/05/15 01:43:33;;;;;;;17.13;16.20;;;21.70;83.20;;;;;;5051970;28;20451;-55
2023/05/15 01:46:00;;;;;;;16.10;15.47;;;21.70;83.40;;;;;;5051980;28;21015;-52
2023/05/15 01:48:30;;;;;;;18.60;17.70;;;21.60;83.40;;;;;;5052115;28;20507;-51
2023/05/15 01:51:03;;;;;;;16.67;15.97;;;21.60;83.50;;;;;;5052107;28;20487;-54
2023/05/15 01:53:31;;;;;;;17.50;16.80;;;21.60;83.60;;;;;;5051776;28;20809;-52
2023/05/15 01:55:59;;;;;;;17.13;16.40;;;21.60;83.70;;;;;;5051677;28;20479;-52
2023/05/15 01:58:28;;;;;;;16.40;15.80;;;21.60;83.80;;;;;;5051891;28;20464;-52
2023/05/15 02:00:57;;;;;;;17.30;16.50;;;21.60;83.90;;;;;;5051892;28;20490;-51
2023/05/15 02:03:25;;;;;;;16.90;16.10;;;21.60;83.90;;;;;;5051458;28;20892;-54
2023/05/15 02:05:55;;;;;;;16.87;16.27;;;21.60;84.10;;;;;;5051728;28;20484;-53
2023/05/15 02:08:24;;;;;;;17.23;16.60;;;21.60;84.00;;;;;;5051765;28;20467;-55
2023/05/15 02:10:52;;;;;;;18.03;17.20;;;21.60;84.00;;;;;;5051628;28;20448;-52
2023/05/15 02:13:20;;;;;;;17.47;16.77;;;21.60;84.10;;;;;;5051426;28;20484;-53
2023/05/15 02:15:47;;;;;;;16.93;16.17;;;21.60;84.20;;;;;;5051528;28;20491;-51
2023/05/15 02:18:15;;;;;;;17.60;16.70;;;21.60;84.30;;;;;;5051419;28;20484;-51
2023/05/15 02:20:42;;;;;;;16.40;15.83;;;21.60;84.50;;;;;;5051662;28;20471;-51
2023/05/15 02:23:09;;;;;;;17.00;16.40;;;21.60;84.40;;;;;;5051443;28;20483;-51
2023/05/15 02:25:46;;;;;;;16.90;16.30;;;21.60;84.40;;;;;;5051185;28;20484;-52
2023/05/15 02:28:21;;;;;;;17.80;17.10;;;21.60;84.60;;;;;;5051300;28;20553;-53
2023/05/15 02:30:55;;;;;;;16.47;15.87;;;21.60;84.70;;;;;;5051648;28;20474;-55
2023/05/15 02:33:30;;;;;;;19.23;18.53;;;21.60;85.40;;;;;;5050719;28;20455;-54
2023/05/15 02:35:59;;;;;;;19.30;18.50;;;21.60;84.80;;;;;;5051431;28;20502;-54
2023/05/15 02:38:30;;;;;;;18.43;17.73;;;21.60;85.00;;;;;;5051541;28;20502;-53
2023/05/15 02:40:58;;;;;;;19.17;18.27;;;21.60;85.10;;;;;;5051366;28;20467;-55
2023/05/15 02:43:26;;;;;;;17.33;16.40;;;21.60;85.10;;;;;;5051122;28;20510;-52
2023/05/15 02:45:54;;;;;;;18.93;17.73;;;21.60;85.20;;;;;;5051213;28;20472;-53
2023/05/15 02:48:21;;;;;;;17.13;16.53;;;21.60;85.20;;;;;;5051332;28;20928;-53
2023/05/15 02:50:51;;;;;;;17.17;16.47;;;21.60;85.20;;;;;;5051212;28;20882;-54
2023/05/15 02:53:18;;;;;;;16.80;16.10;;;21.60;85.20;;;;;;5050887;28;20480;-56
2023/05/15 02:55:45;;;;;;;16.93;16.23;;;21.60;85.40;;;;;;5051246;28;20515;-52
2023/05/15 02:58:12;;;;;;;17.07;16.37;;;21.60;85.40;;;;;;5051096;28;20471;-53
2023/05/15 03:00:39;;;;;;;17.00;16.30;;;21.60;85.40;;;;;;5051207;28;20480;-51
2023/05/15 03:03:05;;;;;;;18.63;17.83;;;21.60;85.40;;;;;;5050673;28;20491;-52
2023/05/15 03:05:32;;;;;;;18.17;17.37;;;21.50;85.30;;;;;;5051080;28;20479;-53
2023/05/15 03:08:01;;;;;;;17.63;17.03;;;21.50;85.30;;;;;;5050964;28;20539;-54
2023/05/15 03:10:28;;;;;;;17.30;16.53;;;21.60;85.50;;;;;;5050635;28;20497;-54
2023/05/15 03:12:57;;;;;;;17.57;16.87;;;21.50;85.40;;;;;;5049248;28;20487;-55
2023/05/15 03:15:24;;;;;;;17.23;16.50;;;21.50;85.40;;;;;;5031114;28;20502;-55
2023/05/15 03:17:50;;;;;;;19.07;18.17;;;21.50;85.50;;;;;;5031003;28;20503;-52
2023/05/15 03:20:17;;;;;;;18.80;18.00;;;21.50;85.40;;;;;;5033071;28;20504;-53
2023/05/15 03:22:44;;;;;;;16.40;15.80;;;21.50;85.50;;;;;;5050783;28;20502;-53
2023/05/15 03:25:13;;;;;;;17.20;16.50;;;21.50;85.40;;;;;;5050678;28;20531;-52
2023/05/15 03:27:40;;;;;;;17.17;16.53;;;21.50;85.30;;;;;;5050919;28;20838;-52
2023/05/15 03:30:08;;;;;;;19.10;18.20;;;21.60;85.10;;;;;;5050661;28;20894;-52
2023/05/15 03:32:35;;;;;;;17.87;17.07;;;21.60;85.00;;;;;;5046486;28;20969;-52
2023/05/15 03:35:02;;;;;;;18.00;17.20;;;21.50;85.10;;;;;;5050815;28;20487;-52
2023/05/15 03:37:28;;;;;;;18.30;17.37;;;21.60;85.40;;;;;;5050982;28;20479;-54
2023/05/15 03:39:55;;;;;;;17.47;16.77;;;21.50;85.30;;;;;;5050688;28;20981;-53
2023/05/15 03:42:24;;;;;;;17.93;17.13;;;21.50;85.30;;;;;;5050534;28;20491;-54
2023/05/15 03:44:51;;;;;;;18.27;17.53;;;21.50;85.50;;;;;;5053064;28;20573;-53
2023/05/15 03:47:18;;;;;;;18.33;17.63;;;21.50;85.70;;;;;;5054444;28;20516;-54
2023/05/15 03:49:46;;;;;;;18.73;17.83;;;21.50;86.00;;;;;;5054347;28;20510;-52
2023/05/15 03:52:13;;;;;;;17.90;17.20;;;21.50;86.10;;;;;;5054068;28;20488;-54
2023/05/15 03:54:40;;;;;;;18.87;18.03;;;21.50;86.20;;;;;;5054213;28;20997;-52
2023/05/15 03:57:07;;;;;;;19.10;18.40;;;21.50;86.30;;;;;;5054117;28;20476;-53
2023/05/15 03:59:35;;;;;;;19.43;18.63;;;21.50;85.90;;;;;;5054076;28;20476;-53
2023/05/15 04:02:02;;;;;;;19.37;18.17;;;21.60;86.60;;;;;;5053796;28;20475;-55
2023/05/15 04:04:29;;;;;;;21.63;20.03;;;21.60;88.70;;;;;;5053812;28;20487;-54
2023/05/15 04:06:56;;;;;;;22.20;20.70;;;21.60;90.60;;;;;;5053590;28;20484;-53
2023/05/15 04:09:23;;;;;;;24.07;22.27;;;21.60;91.60;;;;;;5054097;28;20812;-53
2023/05/15 04:11:49;;;;;;;24.93;23.23;;;21.60;93.10;;;;;;5053593;28;20531;-53
2023/05/15 04:14:16;;;;;;;25.73;23.70;;;21.60;93.40;;;;;;5042662;28;20485;-52
2023/05/15 04:16:45;;;;;;;24.60;22.80;;;21.60;94.00;;;;;;5052144;28;20475;-55
2023/05/15 04:19:12;;;;;;;24.20;22.37;;;21.60;94.20;;;;;;5053756;28;20981;-53
2023/05/15 04:21:38;;;;;;;23.07;21.67;;;21.60;94.00;;;;;;5053522;28;20472;-53
2023/05/15 04:24:07;;;;;;;23.43;21.73;;;21.60;93.60;;;;;;5053530;28;20456;-56
2023/05/15 04:26:34;;;;;;;23.27;21.77;;;21.60;93.30;;;;;;5053787;28;20541;-54
2023/05/15 04:29:02;;;;;;;23.63;22.17;;;21.60;92.70;;;;;;5053479;28;20468;-54
2023/05/15 04:31:29;;;;;;;23.23;21.70;;;21.60;92.40;;;;;;5053421;28;20456;-54
2023/05/15 04:33:57;;;;;;;22.80;21.40;;;21.60;92.20;;;;;;5053267;28;20448;-55
2023/05/15 04:36:24;;;;;;;23.20;21.70;;;21.60;92.10;;;;;;5053599;28;20609;-55
2023/05/15 04:38:51;;;;;;;23.93;22.03;;;21.60;91.80;;;;;;5053401;28;20986;-54
2023/05/15 04:41:18;;;;;;;22.20;20.80;;;21.60;91.70;;;;;;5053424;28;20472;-53
2023/05/15 04:43:45;;;;;;;21.93;20.53;;;21.60;91.50;;;;;;5053193;28;20941;-56
2023/05/15 04:46:12;;;;;;;23.33;21.80;;;21.60;91.40;;;;;;5053304;28;20451;-54
2023/05/15 04:48:39;;;;;;;22.40;21.20;;;21.60;91.30;;;;;;5059320;28;21068;-58
2023/05/15 04:51:07;;;;;;;24.27;22.27;;;21.60;91.20;;;;;;5062129;28;20471;-58
2023/05/15 04:53:34;;;;;;;21.90;20.43;;;21.60;91.10;;;;;;5053811;28;20445;-57
2023/05/15 04:56:01;;;;;;;22.53;21.30;;;21.60;90.90;;;;;;5052616;28;20841;-53
2023/05/15 04:58:28;;;;;;;24.30;22.77;;;21.60;90.80;;;;;;5052894;28;20496;-56
2023/05/15 05:00:55;;;;;;;23.43;22.23;;;21.60;90.70;;;;;;5053026;28;20531;-56
2023/05/15 05:03:22;;;;;;;24.43;23.00;;;21.60;90.60;;;;;;5053152;28;20993;-53
2023/05/15 05:05:49;;;;;;;23.17;21.70;;;21.60;90.50;;;;;;5052726;28;20444;-55
2023/05/15 05:08:17;;;;;;;23.60;21.90;;;21.60;90.40;;;;;;5052741;28;20522;-52
2023/05/15 05:10:44;;;;;;;21.23;20.23;;;21.60;90.30;;;;;;5053002;28;20456;-53
2023/05/15 05:13:11;;;;;;;23.67;22.13;;;21.60;90.20;;;;;;5052689;28;20487;-53
2023/05/15 05:15:38;;;;;;;22.10;20.70;;;21.60;90.10;;;;;;5052606;28;20852;-54
2023/05/15 05:18:05;;;;;;;23.20;21.50;;;21.60;90.00;;;;;;5052340;28;20869;-54
2023/05/15 05:20:32;;;;;;;23.00;21.70;;;21.60;90.00;;;;;;5052612;28;20531;-53
2023/05/15 05:22:59;;;;;;;22.30;21.10;;;21.60;89.70;;;;;;5052408;28;20486;-54
2023/05/15 05:25:27;;;;;;;21.80;20.70;;;21.60;89.40;;;;;;5052442;28;20475;-55
2023/05/15 05:27:54;;;;;;;23.57;21.73;;;21.60;89.30;;;;;;5052456;28;20514;-52
2023/05/15 05:30:22;;;;;;;22.60;21.23;;;21.60;89.10;;;;;;5052427;28;20507;-55
2023/05/15 05:32:49;;;;;;;22.63;21.40;;;21.60;88.90;;;;;;5052263;28;20442;-54
2023/05/15 05:35:16;;;;;;;21.87;20.77;;;21.60;88.80;;;;;;5052253;28;20598;-56
2023/05/15 05:37:42;;;;;;;22.10;20.90;;;21.60;88.60;;;;;;5052184;28;20957;-54
2023/05/15 05:40:10;;;;;;;23.07;21.97;;;21.60;88.40;;;;;;5052186;28;20518;-56
2023/05/15 05:42:38;;;;;;;22.80;21.57;;;21.60;88.30;;;;;;5052041;28;20483;-55
2023/05/15 05:45:07;;;;;;;22.07;20.90;;;21.60;88.20;;;;;;5052077;28;20937;-57
2023/05/15 05:47:34;;;;;;;21.57;20.40;;;21.60;88.10;;;;;;5051864;28;20928;-54
2023/05/15 05:50:02;;;;;;;21.77;20.63;;;21.60;88.00;;;;;;5052001;28;21024;-54
2023/05/15 05:52:29;;;;;;;21.67;20.53;;;21.60;87.90;;;;;;5051913;28;20444;-53
2023/05/15 05:54:55;;;;;;;20.97;19.97;;;21.60;87.70;;;;;;5052002;28;20448;-55
2023/05/15 05:57:22;;;;;;;21.27;20.30;;;21.60;87.60;;;;;;5052114;28;20480;-53
2023/05/15 05:59:51;;;;;;;22.13;20.80;;;21.60;87.30;;;;;;5051798;28;20506;-54
2023/05/15 06:02:17;;;;;;;21.57;20.40;;;21.60;87.20;;;;;;5051845;28;20448;-56
2023/05/15 06:04:44;;;;;;;22.07;20.97;;;21.60;87.10;;;;;;5051673;28;20878;-54
2023/05/15 06:07:11;;;;;;;22.10;21.00;;;21.60;86.90;;;;;;5050928;28;20467;-55
2023/05/15 06:09:38;;;;;;;21.37;20.30;;;21.60;86.90;;;;;;5051634;28;20468;-54
2023/05/15 06:12:07;;;;;;;22.20;21.17;;;21.60;86.80;;;;;;5051639;28;20472;-58
2023/05/15 06:14:34;;;;;;;21.73;20.73;;;21.60;86.70;;;;;;5051519;28;20447;-58
2023/05/15 06:17:03;;;;;;;23.13;22.03;;;21.60;86.60;;;;;;5051669;28;20856;-55
2023/05/15 06:19:30;;;;;;;21.90;20.90;;;21.60;86.50;;;;;;5051523;28;20530;-57
2023/05/15 06:21:57;;;;;;;21.70;20.70;;;21.60;86.50;;;;;;5051635;28;20863;-57
2023/05/15 06:24:24;;;;;;;21.37;20.40;;;21.60;86.50;;;;;;5051680;28;20440;-56
2023/05/15 06:26:51;;;;;;;22.43;21.33;;;21.60;86.30;;;;;;5051561;28;20444;-53
2023/05/15 06:29:18;;;;;;;20.83;19.83;;;21.60;86.20;;;;;;5051301;28;20504;-54
2023/05/15 06:31:45;;;;;;;22.00;20.80;;;21.60;86.10;;;;;;5051443;28;20479;-57
2023/05/15 06:34:13;;;;;;;20.17;19.23;;;21.60;86.10;;;;;;5051478;28;20972;-54
2023/05/15 06:36:40;;;;;;;21.50;20.50;;;21.50;85.90;;;;;;5051319;28;20512;-57
2023/05/15 06:39:09;;;;;;;21.53;20.57;;;21.60;85.80;;;;;;5051255;28;20495;-57
2023/05/15 06:41:36;;;;;;;20.37;19.47;;;21.60;85.80;;;;;;5051596;28;20452;-53
2023/05/15 06:44:03;;;;;;;20.63;19.63;;;21.60;85.70;;;;;;5051291;28;20440;-55
2023/05/15 06:46:30;;;;;;;20.50;19.70;;;21.60;85.50;;;;;;5051286;28;20502;-57
2023/05/15 06:48:57;;;;;;;20.83;19.93;;;21.60;85.50;;;;;;5051217;28;20511;-53
2023/05/15 06:51:25;;;;;;;20.50;19.57;;;21.60;85.40;;;;;;5051179;28;20965;-53
2023/05/15 06:53:52;;;;;;;20.20;19.30;;;21.60;85.40;;;;;;5051096;28;20853;-55
2023/05/15 06:56:19;;;;;;;20.83;19.93;;;21.60;85.30;;;;;;5051352;28;20471;-57
2023/05/15 06:58:46;;;;;;;20.43;19.43;;;21.60;85.20;;;;;;5051098;28;20456;-58
2023/05/15 07:01:13;;;;;;;21.40;20.40;;;21.50;85.00;;;;;;5051251;28;20476;-54
2023/05/15 07:03:41;;;;;;;21.00;20.07;;;21.60;85.00;;;;;;5050992;28;20480;-57
2023/05/15 07:06:08;;;;;;;20.50;19.47;;;21.50;84.90;;;;;;5050991;28;20448;-53
2023/05/15 07:08:36;;;;;;;21.07;19.87;;;21.50;84.80;;;;;;5050978;28;20550;-55
2023/05/15 07:11:04;;;;;;;20.70;19.80;;;21.50;84.70;;;;;;5051189;28;20965;-56
2023/05/15 07:13:31;;;;;;;20.80;19.90;;;21.50;84.60;;;;;;5050959;28;20518;-53
2023/05/15 07:15:58;;;;;;;20.70;19.70;;;21.50;84.50;;;;;;5055835;28;20444;-56
2023/05/15 07:18:24;;;;;;;21.90;20.90;;;21.50;84.40;;;;;;5061745;28;20464;-58
2023/05/15 07:20:51;;;;;;;20.90;20.03;;;21.50;84.40;;;;;;5055017;28;20476;-53
2023/05/15 07:23:18;;;;;;;21.80;20.77;;;21.50;84.40;;;;;;5054659;28;20933;-53
2023/05/15 07:25:46;;;;;;;20.53;19.63;;;21.50;84.30;;;;;;5054815;28;20874;-52
2023/05/15 07:28:13;;;;;;;20.23;19.40;;;21.50;84.10;;;;;;5054824;28;20519;-54
2023/05/15 07:30:40;;;;;;;20.80;19.90;;;21.50;84.20;;;;;;5054926;28;20440;-57
2023/05/15 07:33:07;;;;;;;20.67;19.80;;;21.50;84.20;;;;;;5054460;28;20487;-58
2023/05/15 07:35:34;;;;;;;20.27;19.47;;;21.50;84.10;;;;;;5054538;28;20471;-57
2023/05/15 07:38:01;;;;;;;21.13;20.33;;;21.50;84.00;;;;;;5054403;28;20518;-56
2023/05/15 07:40:28;;;;;;;20.90;20.10;;;21.50;84.00;;;;;;5054759;28;20480;-55
2023/05/15 07:42:57;;;;;;;21.10;20.20;;;21.50;83.90;;;;;;5054299;28;20482;-55
2023/05/15 07:45:24;;;;;;;20.77;19.87;;;21.50;83.90;;;;;;5054425;28;20448;-56
2023/05/15 07:47:51;;;;;;;21.10;20.20;;;21.50;83.80;;;;;;5054217;28;20873;-56
2023/05/15 07:50:18;;;;;;;21.90;21.10;;;21.50;83.70;;;;;;5054141;28;21058;-56
2023/05/15 07:52:45;;;;;;;20.77;19.77;;;21.50;83.80;;;;;;5054209;28;20476;-53
2023/05/15 07:55:12;;;;;;;20.30;19.50;;;21.50;83.70;;;;;;5054061;28;20501;-56
2023/05/15 07:57:39;;;;;;;20.93;20.03;;;21.50;83.60;;;;;;5054084;28;20484;-58
2023/05/15 08:00:10;;;;;;;20.43;19.67;;;21.50;83.60;;;;;;5054232;28;20476;-53
2023/05/15 08:02:37;;;;;;;20.53;19.53;;;21.50;83.60;;;;;;5053945;28;20786;-54
2023/05/15 08:05:04;;;;;;;21.67;20.67;;;21.50;83.50;;;;;;5054133;28;20544;-53
2023/05/15 08:07:32;;;;;;;20.43;19.70;;;21.50;83.50;;;;;;5054121;28;20556;-54
2023/05/15 08:09:59;;;;;;;20.63;19.83;;;21.50;83.40;;;;;;5053730;28;20491;-53
2023/05/15 08:12:26;;;;;;;21.33;20.30;;;21.50;83.30;;;;;;5053888;28;20456;-55
2023/05/15 08:14:55;;;;;;;19.53;18.83;;;21.50;83.30;;;;;;5053735;28;20814;-55
2023/05/15 08:17:24;;;;;;;20.47;19.67;;;21.50;83.20;;;;;;5053796;28;20965;-53
2023/05/15 08:19:51;;;;;;;20.33;19.53;;;21.50;83.10;;;;;;5053568;28;20496;-54
2023/05/15 08:22:18;;;;;;;20.50;19.70;;;21.50;83.10;;;;;;5053491;28;20487;-55
2023/05/15 08:24:45;;;;;;;19.97;19.27;;;21.50;83.00;;;;;;5053524;28;20448;-54
2023/05/15 08:27:12;;;;;;;20.80;20.00;;;21.50;83.00;;;;;;5053626;28;20530;-57
2023/05/15 08:29:39;;;;;;;20.70;20.00;;;21.50;82.90;;;;;;5052675;28;20515;-58
2023/05/15 08:32:07;;;;;;;19.67;18.93;;;21.50;82.90;;;;;;5053517;28;21064;-55
2023/05/15 08:34:35;;;;;;;20.73;19.93;;;21.50;82.80;;;;;;5053211;28;20820;-57
2023/05/15 08:37:04;;;;;;;20.07;19.30;;;21.50;82.80;;;;;;5053424;28;20811;-56
2023/05/15 08:39:31;;;;;;;19.67;18.97;;;21.50;82.80;;;;;;5053217;28;20480;-58
2023/05/15 08:42:05;;;;;;;20.07;19.27;;;21.50;82.80;;;;;;5053507;28;20497;-56
2023/05/15 08:44:33;;;;;;;20.60;19.80;;;21.50;82.70;;;;;;5053178;28;20860;-55
2023/05/15 08:47:00;;;;;;;21.30;20.50;;;21.50;82.70;;;;;;5053329;28;20480;-54
2023/05/15 08:49:39;;;;;;;19.87;19.17;;;21.50;82.70;;;;;;5053048;28;20570;-53
2023/05/15 08:52:06;;;;;;;21.43;20.63;;;21.50;82.70;;;;;;5053254;28;20498;-53
2023/05/15 08:54:34;;;;;;;19.73;19.03;;;21.50;82.70;;;;;;5052803;28;20480;-55
2023/05/15 08:57:02;;;;;;;20.60;19.77;;;21.50;82.70;;;;;;5053033;28;20483;-56
2023/05/15 08:59:29;;;;;;;20.37;19.57;;;21.50;82.50;;;;;;5052942;28;20488;-58
2023/05/15 09:01:57;;;;;;;19.80;19.00;;;21.50;82.50;;;;;;5052945;28;20475;-53
2023/05/15 09:04:24;;;;;;;19.70;19.00;;;21.50;82.40;;;;;;5052872;28;20875;-54
2023/05/15 09:06:53;;;;;;;19.90;19.20;;;21.50;82.40;;;;;;5052819;28;20875;-55
2023/05/15 09:09:21;;;;;;;19.73;18.97;;;21.50;82.40;;;;;;5052734;28;20526;-55
2023/05/15 09:11:49;;;;;;;19.67;18.97;;;21.50;82.40;;;;;;5052785;28;20480;-53
2023/05/15 09:14:16;;;;;;;20.67;19.77;;;21.50;82.30;;;;;;5052641;28;20864;-56
2023/05/15 09:16:43;;;;;;;19.87;19.20;;;21.50;82.30;;;;;;5053033;28;20486;-53
2023/05/15 09:19:11;;;;;;;19.80;19.10;;;21.50;82.30;;;;;;5052501;28;20511;-56
2023/05/15 09:21:38;;;;;;;20.60;19.80;;;21.50;82.30;;;;;;5055192;28;20478;-58
2023/05/15 09:24:27;;;;;;;19.90;19.20;;;21.50;82.30;;;;;;5062463;28;20444;-58
2023/05/15 09:27:04;;;;;;;20.77;19.97;;;21.50;82.20;;;;;;5052805;28;20803;-54
2023/05/15 09:29:32;;;;;;;19.33;18.63;;;21.50;82.20;;;;;;5052491;28;21066;-56
2023/05/15 09:32:03;;;;;;;19.90;19.20;;;21.50;82.20;;;;;;5052425;28;20444;-54
2023/05/15 09:34:31;;;;;;;20.40;19.50;;;21.50;82.20;;;;;;5052084;28;20444;-57
2023/05/15 09:36:58;;;;;;;19.03;18.33;;;21.50;82.10;;;;;;5052533;28;20945;-58
2023/05/15 09:39:26;;;;;;;19.43;18.70;;;21.50;82.20;;;;;;5052225;28;20496;-55
2023/05/15 09:41:53;;;;;;;20.20;19.50;;;21.50;82.10;;;;;;5052233;28;21136;-54
2023/05/15 09:44:25;;;;;;;19.07;18.47;;;21.50;82.10;;;;;;5051998;28;20525;-59
2023/05/15 09:46:52;;;;;;;19.63;18.93;;;21.50;82.10;;;;;;5052156;28;20472;-58
2023/05/15 09:49:19;;;;;;;20.57;19.87;;;21.50;82.00;;;;;;5051926;28;20595;-56
2023/05/15 09:51:49;;;;;;;19.70;19.00;;;21.50;82.00;;;;;;5052215;28;20471;-54
2023/05/15 09:54:16;;;;;;;20.20;19.50;;;21.50;82.00;;;;;;5051808;28;21022;-55
2023/05/15 09:56:46;;;;;;;19.40;18.70;;;21.50;82.00;;;;;;5052145;28;20480;-56
2023/05/15 09:59:15;;;;;;;19.40;18.70;;;21.50;81.90;;;;;;5052033;28;20492;-53
2023/05/15 10:01:44;;;;;;;19.87;19.13;;;21.50;81.90;;;;;;5051819;28;20443;-55
2023/05/15 10:04:12;;;;;;;19.80;19.10;;;21.60;82.00;;;;;;5051703;28;20941;-54
2023/05/15 10:06:40;;;;;;;19.47;18.80;;;21.60;82.70;;;;;;5051809;28;20484;-56
2023/05/15 10:09:07;;;;;;;19.33;18.63;;;21.60;82.00;;;;;;5051582;28;20528;-54
2023/05/15 10:11:37;;;;;;;18.83;18.23;;;21.50;81.80;;;;;;5051684;28;20531;-55
2023/05/15 10:14:06;;;;;;;20.23;19.43;;;21.60;81.90;;;;;;5051554;28;20472;-56
2023/05/15 10:16:34;;;;;;;21.27;20.47;;;21.50;81.80;;;;;;5051708;28;20444;-58
2023/05/15 10:19:04;;;;;;;20.23;19.33;;;21.60;81.90;;;;;;5052143;28;20961;-53
2023/05/15 10:21:33;;;;;;;19.40;18.70;;;21.60;81.90;;;;;;5051716;28;20867;-56
2023/05/15 10:24:01;;;;;;;19.50;18.80;;;21.60;81.80;;;;;;5051468;28;20483;-53
2023/05/15 10:26:36;;;;;;;19.50;18.80;;;21.60;81.80;;;;;;5051452;28;20482;-56
2023/05/15 10:29:07;;;;;;;19.53;18.83;;;21.60;81.80;;;;;;5051379;28;20490;-56
2023/05/15 10:31:35;;;;;;;19.40;18.70;;;21.60;81.80;;;;;;5051612;28;20521;-56
2023/05/15 10:34:02;;;;;;;20.17;19.47;;;21.60;81.80;;;;;;5051366;28;20451;-56
2023/05/15 10:36:30;;;;;;;19.17;18.47;;;21.60;81.80;;;;;;5051349;28;20960;-57
2023/05/15 10:38:59;;;;;;;19.50;18.80;;;21.60;81.70;;;;;;5051332;28;20502;-55
2023/05/15 10:41:28;;;;;;;19.50;18.80;;;21.60;81.70;;;;;;5051433;28;20487;-57
2023/05/15 10:43:57;;;;;;;19.67;18.97;;;21.60;81.60;;;;;;5051193;28;20478;-57
2023/05/15 10:46:26;;;;;;;19.30;18.60;;;21.60;81.60;;;;;;5051316;28;20476;-53
2023/05/15 10:48:53;;;;;;;19.10;18.40;;;21.60;81.60;;;;;;5051291;28;20579;-58
2023/05/15 10:51:25;;;;;;;18.70;18.10;;;21.60;81.60;;;;;;5051292;28;20917;-56
2023/05/15 10:53:53;;;;;;;19.43;18.73;;;21.60;81.50;;;;;;5053917;28;20452;-54
2023/05/15 10:56:21;;;;;;;19.80;19.10;;;21.60;81.40;;;;;;5055377;28;20448;-55
2023/05/15 10:58:48;;;;;;;19.30;18.70;;;21.60;81.40;;;;;;5055223;28;20482;-56
2023/05/15 11:01:27;;;;;;;19.47;18.77;;;21.60;81.40;;;;;;5055628;28;20793;-55
2023/05/15 11:04:09;;;;;;;18.60;18.00;;;21.60;81.30;;;;;;5055234;28;20448;-56
2023/05/15 11:06:37;;;;;;;19.93;19.13;;;21.60;81.30;;;;;;5055300;28;20472;-55
2023/05/15 11:09:34;;;;;;;19.53;18.83;;;21.60;81.30;;;;;;5055034;28;20534;-56
2023/05/15 11:12:03;;;;;;;18.70;18.10;;;21.60;81.30;;;;;;5049300;28;20811;-53
2023/05/15 11:14:31;;;;;;;18.13;17.53;;;21.70;81.40;;;;;;5054842;28;21136;-54
2023/05/15 11:17:03;;;;;;;19.27;18.50;;;21.70;81.30;;;;;;5055042;28;20440;-53
2023/05/15 11:19:52;;;;;;;19.10;18.40;;;21.70;81.20;;;;;;5054814;28;20911;-56
2023/05/15 11:22:20;;;;;;;19.13;18.33;;;21.70;81.20;;;;;;5052896;28;20487;-54
2023/05/15 11:24:50;;;;;;;20.33;19.63;;;21.70;81.10;;;;;;5064804;28;20455;-59
2023/05/15 11:27:19;;;;;;;18.90;18.23;;;21.70;81.10;;;;;;5060437;28;20547;-60
2023/05/15 11:30:12;;;;;;;19.13;18.50;;;21.70;81.10;;;;;;5054625;28;20484;-55
2023/05/15 11:32:50;;;;;;;19.33;18.70;;;21.70;81.10;;;;;;5054594;28;20464;-56
2023/05/15 11:35:23;;;;;;;18.87;18.23;;;21.70;81.00;;;;;;5054644;28;20913;-57
2023/05/15 11:37:52;;;;;;;19.40;18.70;;;21.70;81.00;;;;;;5054698;28;20884;-56
2023/05/15 11:40:22;;;;;;;18.53;17.93;;;21.70;81.00;;;;;;5054724;28;20534;-54
2023/05/15 11:43:04;;;;;;;18.63;18.03;;;21.70;81.00;;;;;;5054187;28;20446;-57
2023/05/15 11:45:33;;;;;;;19.70;19.10;;;21.70;81.00;;;;;;5052415;28;20476;-55
2023/05/15 11:48:03;;;;;;;19.50;18.90;;;21.70;80.90;;;;;;5054832;28;20471;-54
2023/05/15 11:50:32;;;;;;;18.83;18.23;;;21.70;80.90;;;;;;5054176;28;20511;-56
2023/05/15 11:53:02;;;;;;;18.90;18.30;;;21.80;80.90;;;;;;5054097;28;20455;-56
2023/05/15 11:55:30;;;;;;;19.83;19.13;;;21.80;80.80;;;;;;5054676;28;20444;-56
2023/05/15 11:57:57;;;;;;;19.33;18.67;;;21.80;80.70;;;;;;5054256;28;20531;-58
2023/05/15 12:00:24;;;;;;;19.60;18.90;;;21.80;80.70;;;;;;5054128;28;20505;-52
2023/05/15 12:02:51;;;;;;;19.40;18.60;;;21.80;80.70;;;;;;5054091;28;20476;-57
2023/05/15 12:05:19;;;;;;;18.93;18.13;;;21.80;80.60;;;;;;5052794;28;20456;-57
2023/05/15 12:07:47;;;;;;;19.57;18.87;;;21.80;80.60;;;;;;5054160;28;20455;-54
2023/05/15 12:10:14;;;;;;;19.17;18.47;;;21.80;80.50;;;;;;5053986;28;20575;-57
2023/05/15 12:12:42;;;;;;;18.90;18.30;;;21.80;80.50;;;;;;5053842;28;20973;-56
2023/05/15 12:15:10;;;;;;;18.80;18.20;;;21.80;80.40;;;;;;5053869;28;20480;-58
2023/05/15 12:17:38;;;;;;;18.80;18.20;;;21.80;80.30;;;;;;5053777;28;20479;-57
2023/05/15 12:20:09;;;;;;;19.00;18.40;;;21.80;80.20;;;;;;5053594;28;20472;-56
2023/05/15 12:22:38;;;;;;;19.03;18.43;;;21.80;80.20;;;;;;5053620;28;20777;-55
2023/05/15 12:25:06;;;;;;;19.53;18.83;;;21.90;80.10;;;;;;5053730;28;20813;-56
2023/05/15 12:27:34;;;;;;;18.90;18.30;;;21.80;80.00;;;;;;5053950;28;20475;-57
2023/05/15 12:30:02;;;;;;;19.50;18.80;;;21.90;80.10;;;;;;5053481;28;20484;-56
2023/05/15 12:32:32;;;;;;;18.57;17.97;;;21.90;80.00;;;;;;5053530;28;20448;-55
2023/05/15 12:34:59;;;;;;;19.10;18.40;;;21.90;80.00;;;;;;5053500;28;20448;-54